sensor_id;sensor_type;location;lat;lon;timestamp;temperature;humidity
15341;DHT22;7770;52.158;5.372;2024-01-30T00:00:24;8.60;99.90
15341;DHT22;7770;52.158;5.372;2024-01-30T00:03:10;8.70;99.90
15341;DHT22;7770;52.158;5.372;2024-01-30T00:05:56;8.60;99.90
15341;DHT22;7770;52.158;5.372;2024-01-30T00:08:42;8.60;99.90
15341;DHT22;7770;52.158;5.372;2024-01-30T00:11:32;8.60;99.90
15341;DHT22;7770;52.158;5.372;2024-01-30T00:14:18;8.60;99.90
15341;DHT22;7770;52.158;5.372;2024-01-30T00:17:04;8.60;99.90
15341;DHT22;7770;52.158;5.372;2024-01-30T00:19:50;8.60;99.90
15341;DHT22;7770;52.158;5.372;2024-01-30T00:22:36;8.70;99.90
15341;DHT22;7770;52.158;5.372;2024-01-30T00:25:22;8.70;99.90
15341;DHT22;7770;52.158;5.372;2024-01-30T00:28:08;8.60;99.90
15341;DHT22;7770;52.158;5.372;2024-01-30T00:30:54;8.60;99.90
15341;DHT22;7770;52.158;5.372;2024-01-30T00:33:40;8.60;99.90
15341;DHT22;7770;52.158;5.372;2024-01-30T00:36:26;8.60;99.90
15341;DHT22;7770;52.158;5.372;2024-01-30T00:39:15;8.60;99.90
15341;DHT22;7770;52.158;5.372;2024-01-30T00:42:01;8.50;99.90
15341;DHT22;7770;52.158;5.372;2024-01-30T00:44:47;8.40;99.90
15341;DHT22;7770;52.158;5.372;2024-01-30T00:47:33;8.30;99.90
15341;DHT22;7770;52.158;5.372;2024-01-30T00:50:19;8.40;99.90
15341;DHT22;7770;52.158;5.372;2024-01-30T00:53:05;8.30;99.90
15341;DHT22;7770;52.158;5.372;2024-01-30T00:55:51;8.30;99.90
15341;DHT22;7770;52.158;5.372;2024-01-30T00:58:37;8.30;99.90
15341;DHT22;7770;52.158;5.372;2024-01-30T01:01:23;8.20;99.90
15341;DHT22;7770;52.158;5.372;2024-01-30T01:04:09;8.10;99.90
15341;DHT22;7770;52.158;5.372;2024-01-30T01:06:55;7.90;99.90
15341;DHT22;7770;52.158;5.372;2024-01-30T01:09:41;7.90;99.90
15341;DHT22;7770;52.158;5.372;2024-01-30T01:12:28;7.70;99.90
15341;DHT22;7770;52.158;5.372;2024-01-30T01:15:14;7.70;99.90
15341;DHT22;7770;52.158;5.372;2024-01-30T01:18:00;7.70;99.90
15341;DHT22;7770;52.158;5.372;2024-01-30T01:20:46;7.60;99.90
15341;DHT22;7770;52.158;5.372;2024-01-30T01:23:32;7.50;99.90
15341;DHT22;7770;52.158;5.372;2024-01-30T01:26:18;7.50;99.90
15341;DHT22;7770;52.158;5.372;2024-01-30T01:29:04;7.50;99.90
15341;DHT22;7770;52.158;5.372;2024-01-30T01:31:56;7.60;99.90
15341;DHT22;7770;52.158;5.372;2024-01-30T01:34:42;7.60;99.90
15341;DHT22;7770;52.158;5.372;2024-01-30T01:37:28;7.60;99.90
15341;DHT22;7770;52.158;5.372;2024-01-30T01:40:14;7.60;99.90
15341;DHT22;7770;52.158;5.372;2024-01-30T01:43:03;7.40;99.90
15341;DHT22;7770;52.158;5.372;2024-01-30T01:45:50;7.40;99.90
15341;DHT22;7770;52.158;5.372;2024-01-30T01:48:37;7.40;99.90
15341;DHT22;7770;52.158;5.372;2024-01-30T01:51:27;7.30;99.90
15341;DHT22;7770;52.158;5.372;2024-01-30T01:54:14;7.20;99.90
15341;DHT22;7770;52.158;5.372;2024-01-30T01:57:01;7.10;99.90
15341;DHT22;7770;52.158;5.372;2024-01-30T01:59:47;7.10;99.90
15341;DHT22;7770;52.158;5.372;2024-01-30T02:02:35;7.10;99.90
15341;DHT22;7770;52.158;5.372;2024-01-30T02:05:22;7.10;99.90
15341;DHT22;7770;52.158;5.372;2024-01-30T02:08:09;7.10;99.90
15341;DHT22;7770;52.158;5.372;2024-01-30T02:10:55;7.10;99.90
15341;DHT22;7770;52.158;5.372;2024-01-30T02:13:41;7.20;99.90
15341;DHT22;7770;52.158;5.372;2024-01-30T02:16:27;7.10;99.90
15341;DHT22;7770;52.158;5.372;2024-01-30T02:19:13;7.10;99.90
15341;DHT22;7770;52.158;5.372;2024-01-30T02:21:59;7.10;99.90
15341;DHT22;7770;52.158;5.372;2024-01-30T02:24:45;7.10;99.90
15341;DHT22;7770;52.158;5.372;2024-01-30T02:27:31;7.20;99.90
15341;DHT22;7770;52.158;5.372;2024-01-30T02:30:17;7.10;99.90
15341;DHT22;7770;52.158;5.372;2024-01-30T02:33:03;7.20;99.90
15341;DHT22;7770;52.158;5.372;2024-01-30T02:35:49;7.20;99.90
15341;DHT22;7770;52.158;5.372;2024-01-30T02:38:35;7.20;99.90
15341;DHT22;7770;52.158;5.372;2024-01-30T02:41:21;7.20;99.90
15341;DHT22;7770;52.158;5.372;2024-01-30T02:44:07;7.20;99.90
15341;DHT22;7770;52.158;5.372;2024-01-30T02:46:53;7.30;99.90
15341;DHT22;7770;52.158;5.372;2024-01-30T02:49:40;7.30;99.90
15341;DHT22;7770;52.158;5.372;2024-01-30T02:52:26;7.30;99.90
15341;DHT22;7770;52.158;5.372;2024-01-30T02:55:12;7.30;99.90
15341;DHT22;7770;52.158;5.372;2024-01-30T02:57:59;7.40;99.90
15341;DHT22;7770;52.158;5.372;2024-01-30T03:00:45;7.40;99.90
15341;DHT22;7770;52.158;5.372;2024-01-30T03:03:31;7.50;99.90
15341;DHT22;7770;52.158;5.372;2024-01-30T03:06:17;7.40;99.90
15341;DHT22;7770;52.158;5.372;2024-01-30T03:09:03;7.50;99.90
15341;DHT22;7770;52.158;5.372;2024-01-30T03:11:50;7.40;99.90
15341;DHT22;7770;52.158;5.372;2024-01-30T03:14:36;7.40;99.90
15341;DHT22;7770;52.158;5.372;2024-01-30T03:17:22;7.40;99.90
15341;DHT22;7770;52.158;5.372;2024-01-30T03:20:10;7.40;99.90
15341;DHT22;7770;52.158;5.372;2024-01-30T03:22:56;7.50;99.90
15341;DHT22;7770;52.158;5.372;2024-01-30T03:25:42;7.50;99.90
15341;DHT22;7770;52.158;5.372;2024-01-30T03:28:28;7.40;99.90
15341;DHT22;7770;52.158;5.372;2024-01-30T03:31:16;7.40;99.90
15341;DHT22;7770;52.158;5.372;2024-01-30T03:34:02;7.40;99.90
15341;DHT22;7770;52.158;5.372;2024-01-30T03:36:48;7.40;99.90
15341;DHT22;7770;52.158;5.372;2024-01-30T03:39:34;7.40;99.90
15341;DHT22;7770;52.158;5.372;2024-01-30T03:42:20;7.40;99.90
15341;DHT22;7770;52.158;5.372;2024-01-30T03:45:06;7.40;99.90
15341;DHT22;7770;52.158;5.372;2024-01-30T03:47:53;7.50;99.90
15341;DHT22;7770;52.158;5.372;2024-01-30T03:50:39;7.50;99.90
15341;DHT22;7770;52.158;5.372;2024-01-30T03:53:25;7.50;99.90
15341;DHT22;7770;52.158;5.372;2024-01-30T03:56:11;7.50;99.90
15341;DHT22;7770;52.158;5.372;2024-01-30T03:58:58;7.60;99.90
15341;DHT22;7770;52.158;5.372;2024-01-30T04:01:46;7.50;99.90
15341;DHT22;7770;52.158;5.372;2024-01-30T04:04:32;7.60;99.90
15341;DHT22;7770;52.158;5.372;2024-01-30T04:07:18;7.60;99.90
15341;DHT22;7770;52.158;5.372;2024-01-30T04:10:05;7.60;99.90
15341;DHT22;7770;52.158;5.372;2024-01-30T04:12:51;7.60;99.90
15341;DHT22;7770;52.158;5.372;2024-01-30T04:15:37;7.70;99.90
15341;DHT22;7770;52.158;5.372;2024-01-30T04:18:23;7.60;99.90
15341;DHT22;7770;52.158;5.372;2024-01-30T04:21:09;7.70;99.90
15341;DHT22;7770;52.158;5.372;2024-01-30T04:23:55;7.70;99.90
15341;DHT22;7770;52.158;5.372;2024-01-30T04:26:41;7.80;99.90
15341;DHT22;7770;52.158;5.372;2024-01-30T04:29:27;7.70;99.90
15341;DHT22;7770;52.158;5.372;2024-01-30T04:32:13;7.70;99.90
15341;DHT22;7770;52.158;5.372;2024-01-30T04:34:59;7.80;99.90
15341;DHT22;7770;52.158;5.372;2024-01-30T04:37:45;7.80;99.90
15341;DHT22;7770;52.158;5.372;2024-01-30T04:40:31;7.90;99.90
15341;DHT22;7770;52.158;5.372;2024-01-30T04:43:17;7.90;99.90
15341;DHT22;7770;52.158;5.372;2024-01-30T04:46:04;8.00;99.90
15341;DHT22;7770;52.158;5.372;2024-01-30T04:48:51;8.00;99.90
15341;DHT22;7770;52.158;5.372;2024-01-30T04:51:37;8.00;99.90
15341;DHT22;7770;52.158;5.372;2024-01-30T04:54:23;8.00;99.90
15341;DHT22;7770;52.158;5.372;2024-01-30T04:57:09;8.00;99.90
15341;DHT22;7770;52.158;5.372;2024-01-30T04:59:57;8.00;99.90
15341;DHT22;7770;52.158;5.372;2024-01-30T05:02:43;8.00;99.90
15341;DHT22;7770;52.158;5.372;2024-01-30T05:05:29;8.10;99.90
15341;DHT22;7770;52.158;5.372;2024-01-30T05:08:15;8.20;99.90
15341;DHT22;7770;52.158;5.372;2024-01-30T05:11:02;8.20;99.90
15341;DHT22;7770;52.158;5.372;2024-01-30T05:13:51;8.30;99.90
15341;DHT22;7770;52.158;5.372;2024-01-30T05:16:37;8.40;99.90
15341;DHT22;7770;52.158;5.372;2024-01-30T05:19:23;8.30;99.90
15341;DHT22;7770;52.158;5.372;2024-01-30T05:22:09;8.40;99.90
15341;DHT22;7770;52.158;5.372;2024-01-30T05:24:55;8.40;99.90
15341;DHT22;7770;52.158;5.372;2024-01-30T05:27:41;8.50;99.90
15341;DHT22;7770;52.158;5.372;2024-01-30T05:30:27;8.50;99.90
15341;DHT22;7770;52.158;5.372;2024-01-30T05:33:13;8.50;99.90
15341;DHT22;7770;52.158;5.372;2024-01-30T05:35:59;8.60;99.90
15341;DHT22;7770;52.158;5.372;2024-01-30T05:38:45;8.60;99.90
15341;DHT22;7770;52.158;5.372;2024-01-30T05:41:31;8.70;99.90
15341;DHT22;7770;52.158;5.372;2024-01-30T05:44:17;8.70;99.90
15341;DHT22;7770;52.158;5.372;2024-01-30T05:47:03;8.80;99.90
15341;DHT22;7770;52.158;5.372;2024-01-30T05:49:49;8.70;99.90
15341;DHT22;7770;52.158;5.372;2024-01-30T05:52:35;8.80;99.90
15341;DHT22;7770;52.158;5.372;2024-01-30T05:55:21;8.90;99.90
15341;DHT22;7770;52.158;5.372;2024-01-30T05:58:07;8.90;99.90
15341;DHT22;7770;52.158;5.372;2024-01-30T06:00:53;8.90;99.90
15341;DHT22;7770;52.158;5.372;2024-01-30T06:03:39;9.00;99.90
15341;DHT22;7770;52.158;5.372;2024-01-30T06:06:26;9.00;99.90
15341;DHT22;7770;52.158;5.372;2024-01-30T06:09:12;9.10;99.90
15341;DHT22;7770;52.158;5.372;2024-01-30T06:11:58;9.10;99.90
15341;DHT22;7770;52.158;5.372;2024-01-30T06:14:44;9.10;99.90
15341;DHT22;7770;52.158;5.372;2024-01-30T06:17:30;9.10;99.90
15341;DHT22;7770;52.158;5.372;2024-01-30T06:20:16;9.10;99.90
15341;DHT22;7770;52.158;5.372;2024-01-30T06:23:02;9.10;99.90
15341;DHT22;7770;52.158;5.372;2024-01-30T06:25:48;9.20;99.90
15341;DHT22;7770;52.158;5.372;2024-01-30T06:28:34;9.20;99.90
15341;DHT22;7770;52.158;5.372;2024-01-30T06:31:20;9.20;99.90
15341;DHT22;7770;52.158;5.372;2024-01-30T06:34:07;9.10;99.90
15341;DHT22;7770;52.158;5.372;2024-01-30T06:36:53;9.20;99.90
15341;DHT22;7770;52.158;5.372;2024-01-30T06:39:39;9.20;99.90
15341;DHT22;7770;52.158;5.372;2024-01-30T06:42:25;9.20;99.90
15341;DHT22;7770;52.158;5.372;2024-01-30T06:45:11;9.20;99.90
15341;DHT22;7770;52.158;5.372;2024-01-30T06:47:57;9.20;99.90
15341;DHT22;7770;52.158;5.372;2024-01-30T06:50:43;9.20;99.90
15341;DHT22;7770;52.158;5.372;2024-01-30T06:53:31;9.30;99.90
15341;DHT22;7770;52.158;5.372;2024-01-30T06:56:17;9.20;99.90
15341;DHT22;7770;52.158;5.372;2024-01-30T06:59:06;9.20;99.90
15341;DHT22;7770;52.158;5.372;2024-01-30T07:01:52;9.30;99.90
15341;DHT22;7770;52.158;5.372;2024-01-30T07:04:38;9.30;99.90
15341;DHT22;7770;52.158;5.372;2024-01-30T07:07:25;9.40;99.90
15341;DHT22;7770;52.158;5.372;2024-01-30T07:10:12;9.40;99.90
15341;DHT22;7770;52.158;5.372;2024-01-30T07:12:58;9.40;99.90
15341;DHT22;7770;52.158;5.372;2024-01-30T07:15:44;9.30;99.90
15341;DHT22;7770;52.158;5.372;2024-01-30T07:18:30;9.30;99.90
15341;DHT22;7770;52.158;5.372;2024-01-30T07:21:16;9.30;99.90
15341;DHT22;7770;52.158;5.372;2024-01-30T07:24:03;9.30;99.90
15341;DHT22;7770;52.158;5.372;2024-01-30T07:26:49;9.30;99.90
15341;DHT22;7770;52.158;5.372;2024-01-30T07:29:35;9.30;99.90
15341;DHT22;7770;52.158;5.372;2024-01-30T07:32:21;9.30;99.90
15341;DHT22;7770;52.158;5.372;2024-01-30T07:35:07;9.20;99.90
15341;DHT22;7770;52.158;5.372;2024-01-30T07:37:53;9.30;99.90
15341;DHT22;7770;52.158;5.372;2024-01-30T07:40:39;9.30;99.90
15341;DHT22;7770;52.158;5.372;2024-01-30T07:43:25;9.40;99.90
15341;DHT22;7770;52.158;5.372;2024-01-30T07:46:11;9.40;99.90
15341;DHT22;7770;52.158;5.372;2024-01-30T07:48:58;9.40;99.90
15341;DHT22;7770;52.158;5.372;2024-01-30T07:51:44;9.40;99.90
15341;DHT22;7770;52.158;5.372;2024-01-30T07:54:30;9.40;99.90
15341;DHT22;7770;52.158;5.372;2024-01-30T07:57:19;9.50;99.90
15341;DHT22;7770;52.158;5.372;2024-01-30T08:00:05;9.60;99.90
15341;DHT22;7770;52.158;5.372;2024-01-30T08:02:53;9.60;99.90
15341;DHT22;7770;52.158;5.372;2024-01-30T08:05:41;9.60;99.90
15341;DHT22;7770;52.158;5.372;2024-01-30T08:08:26;9.70;99.90
15341;DHT22;7770;52.158;5.372;2024-01-30T08:11:13;9.80;99.90
15341;DHT22;7770;52.158;5.372;2024-01-30T08:13:59;9.90;99.90
15341;DHT22;7770;52.158;5.372;2024-01-30T08:16:45;9.90;99.90
15341;DHT22;7770;52.158;5.372;2024-01-30T08:19:30;9.90;99.90
15341;DHT22;7770;52.158;5.372;2024-01-30T08:22:16;10.00;99.90
15341;DHT22;7770;52.158;5.372;2024-01-30T08:25:03;10.10;99.90
15341;DHT22;7770;52.158;5.372;2024-01-30T08:27:49;10.10;99.90
15341;DHT22;7770;52.158;5.372;2024-01-30T08:30:35;10.20;99.90
15341;DHT22;7770;52.158;5.372;2024-01-30T08:33:21;10.30;99.90
15341;DHT22;7770;52.158;5.372;2024-01-30T08:36:07;10.30;99.90
15341;DHT22;7770;52.158;5.372;2024-01-30T08:38:53;10.40;99.90
15341;DHT22;7770;52.158;5.372;2024-01-30T08:41:39;10.50;99.90
15341;DHT22;7770;52.158;5.372;2024-01-30T08:44:25;10.60;99.90
15341;DHT22;7770;52.158;5.372;2024-01-30T08:47:11;10.60;99.90
15341;DHT22;7770;52.158;5.372;2024-01-30T08:49:57;10.70;99.90
15341;DHT22;7770;52.158;5.372;2024-01-30T08:52:43;10.70;99.90
15341;DHT22;7770;52.158;5.372;2024-01-30T08:55:29;10.80;99.90
15341;DHT22;7770;52.158;5.372;2024-01-30T08:58:16;10.90;99.90
15341;DHT22;7770;52.158;5.372;2024-01-30T09:01:04;10.90;99.90
15341;DHT22;7770;52.158;5.372;2024-01-30T09:03:51;11.00;99.90
15341;DHT22;7770;52.158;5.372;2024-01-30T09:06:37;11.10;99.90
15341;DHT22;7770;52.158;5.372;2024-01-30T09:09:25;11.20;99.90
15341;DHT22;7770;52.158;5.372;2024-01-30T09:12:11;11.40;99.90
15341;DHT22;7770;52.158;5.372;2024-01-30T09:14:57;11.50;99.90
15341;DHT22;7770;52.158;5.372;2024-01-30T09:17:43;11.60;99.90
15341;DHT22;7770;52.158;5.372;2024-01-30T09:20:29;11.70;99.90
15341;DHT22;7770;52.158;5.372;2024-01-30T09:23:15;11.70;99.90
15341;DHT22;7770;52.158;5.372;2024-01-30T09:26:03;11.60;99.90
15341;DHT22;7770;52.158;5.372;2024-01-30T09:28:49;11.50;99.90
15341;DHT22;7770;52.158;5.372;2024-01-30T09:31:35;11.40;99.90
15341;DHT22;7770;52.158;5.372;2024-01-30T09:34:21;11.40;99.90
15341;DHT22;7770;52.158;5.372;2024-01-30T09:37:07;11.40;99.90
15341;DHT22;7770;52.158;5.372;2024-01-30T09:39:53;11.30;99.90
15341;DHT22;7770;52.158;5.372;2024-01-30T09:42:40;11.30;99.90
15341;DHT22;7770;52.158;5.372;2024-01-30T09:45:28;11.30;99.90
15341;DHT22;7770;52.158;5.372;2024-01-30T09:48:15;11.30;99.90
15341;DHT22;7770;52.158;5.372;2024-01-30T09:51:02;11.30;99.90
15341;DHT22;7770;52.158;5.372;2024-01-30T09:53:49;11.30;99.90
15341;DHT22;7770;52.158;5.372;2024-01-30T09:56:35;11.30;99.90
15341;DHT22;7770;52.158;5.372;2024-01-30T09:59:21;11.40;99.90
15341;DHT22;7770;52.158;5.372;2024-01-30T10:02:07;11.40;99.90
15341;DHT22;7770;52.158;5.372;2024-01-30T10:04:53;11.40;99.90
15341;DHT22;7770;52.158;5.372;2024-01-30T10:07:52;11.40;99.90
15341;DHT22;7770;52.158;5.372;2024-01-30T10:10:39;11.50;99.90
15341;DHT22;7770;52.158;5.372;2024-01-30T10:13:25;11.40;99.90
15341;DHT22;7770;52.158;5.372;2024-01-30T10:16:13;11.40;99.90
15341;DHT22;7770;52.158;5.372;2024-01-30T10:19:02;11.50;99.90
15341;DHT22;7770;52.158;5.372;2024-01-30T10:21:48;11.50;99.90
15341;DHT22;7770;52.158;5.372;2024-01-30T10:24:35;11.60;99.90
15341;DHT22;7770;52.158;5.372;2024-01-30T10:27:26;11.80;99.90
15341;DHT22;7770;52.158;5.372;2024-01-30T10:30:12;11.90;99.90
15341;DHT22;7770;52.158;5.372;2024-01-30T10:32:59;12.10;99.90
15341;DHT22;7770;52.158;5.372;2024-01-30T10:35:45;12.20;99.90
15341;DHT22;7770;52.158;5.372;2024-01-30T10:38:32;12.30;99.90
15341;DHT22;7770;52.158;5.372;2024-01-30T10:41:27;12.30;99.90
15341;DHT22;7770;52.158;5.372;2024-01-30T10:44:19;12.10;99.90
15341;DHT22;7770;52.158;5.372;2024-01-30T10:47:12;12.10;99.90
15341;DHT22;7770;52.158;5.372;2024-01-30T10:50:02;12.10;99.90
15341;DHT22;7770;52.158;5.372;2024-01-30T10:52:49;12.00;99.90
15341;DHT22;7770;52.158;5.372;2024-01-30T10:55:37;12.00;99.90
15341;DHT22;7770;52.158;5.372;2024-01-30T10:58:25;11.90;99.90
15341;DHT22;7770;52.158;5.372;2024-01-30T11:01:11;11.90;99.90
15341;DHT22;7770;52.158;5.372;2024-01-30T11:03:58;12.00;99.90
15341;DHT22;7770;52.158;5.372;2024-01-30T11:06:44;12.20;99.90
15341;DHT22;7770;52.158;5.372;2024-01-30T11:09:36;12.50;99.90
15341;DHT22;7770;52.158;5.372;2024-01-30T11:12:25;12.60;99.90
15341;DHT22;7770;52.158;5.372;2024-01-30T11:15:14;13.00;99.90
15341;DHT22;7770;52.158;5.372;2024-01-30T11:18:01;13.30;99.90
15341;DHT22;7770;52.158;5.372;2024-01-30T11:20:48;13.40;99.90
15341;DHT22;7770;52.158;5.372;2024-01-30T11:23:34;13.10;99.90
15341;DHT22;7770;52.158;5.372;2024-01-30T11:26:27;12.90;99.90
15341;DHT22;7770;52.158;5.372;2024-01-30T11:29:14;12.70;99.90
15341;DHT22;7770;52.158;5.372;2024-01-30T11:32:01;12.70;99.90
15341;DHT22;7770;52.158;5.372;2024-01-30T11:34:47;12.90;99.90
15341;DHT22;7770;52.158;5.372;2024-01-30T11:37:36;12.90;99.90
15341;DHT22;7770;52.158;5.372;2024-01-30T11:40:23;12.80;99.90
15341;DHT22;7770;52.158;5.372;2024-01-30T11:43:11;12.50;99.90
15341;DHT22;7770;52.158;5.372;2024-01-30T11:45:58;12.50;99.90
15341;DHT22;7770;52.158;5.372;2024-01-30T11:48:44;12.40;99.90
15341;DHT22;7770;52.158;5.372;2024-01-30T11:51:31;12.30;99.90
15341;DHT22;7770;52.158;5.372;2024-01-30T11:54:17;12.10;99.90
15341;DHT22;7770;52.158;5.372;2024-01-30T11:57:04;12.00;99.90
15341;DHT22;7770;52.158;5.372;2024-01-30T11:59:50;11.80;99.90
15341;DHT22;7770;52.158;5.372;2024-01-30T12:02:40;11.80;99.90
15341;DHT22;7770;52.158;5.372;2024-01-30T12:05:26;11.80;99.90
15341;DHT22;7770;52.158;5.372;2024-01-30T12:08:16;11.90;99.90
15341;DHT22;7770;52.158;5.372;2024-01-30T12:11:02;11.90;99.90
15341;DHT22;7770;52.158;5.372;2024-01-30T12:13:54;11.80;99.90
15341;DHT22;7770;52.158;5.372;2024-01-30T12:16:40;11.60;99.90
15341;DHT22;7770;52.158;5.372;2024-01-30T12:19:27;11.40;99.90
15341;DHT22;7770;52.158;5.372;2024-01-30T12:22:13;11.30;99.90
15341;DHT22;7770;52.158;5.372;2024-01-30T12:25:00;11.30;99.90
15341;DHT22;7770;52.158;5.372;2024-01-30T12:27:48;11.00;99.90
15341;DHT22;7770;52.158;5.372;2024-01-30T12:30:37;10.90;99.90
15341;DHT22;7770;52.158;5.372;2024-01-30T12:33:26;10.60;99.90
15341;DHT22;7770;52.158;5.372;2024-01-30T12:36:13;10.40;99.90
15341;DHT22;7770;52.158;5.372;2024-01-30T12:38:59;10.40;99.90
15341;DHT22;7770;52.158;5.372;2024-01-30T12:41:46;10.40;99.90
15341;DHT22;7770;52.158;5.372;2024-01-30T12:44:32;10.40;99.90
15341;DHT22;7770;52.158;5.372;2024-01-30T12:47:18;10.40;99.90
15341;DHT22;7770;52.158;5.372;2024-01-30T12:50:07;10.40;99.90
15341;DHT22;7770;52.158;5.372;2024-01-30T12:52:54;10.50;99.90
15341;DHT22;7770;52.158;5.372;2024-01-30T12:55:41;10.50;99.90
15341;DHT22;7770;52.158;5.372;2024-01-30T12:58:27;10.50;99.90
15341;DHT22;7770;52.158;5.372;2024-01-30T13:01:13;10.50;99.90
15341;DHT22;7770;52.158;5.372;2024-01-30T13:03:59;10.50;99.90
15341;DHT22;7770;52.158;5.372;2024-01-30T13:06:45;10.60;99.90
15341;DHT22;7770;52.158;5.372;2024-01-30T13:09:31;10.60;99.90
15341;DHT22;7770;52.158;5.372;2024-01-30T13:12:17;10.60;99.90
15341;DHT22;7770;52.158;5.372;2024-01-30T13:15:04;10.60;99.90
15341;DHT22;7770;52.158;5.372;2024-01-30T13:17:51;10.60;99.90
15341;DHT22;7770;52.158;5.372;2024-01-30T13:20:40;10.70;99.90
15341;DHT22;7770;52.158;5.372;2024-01-30T13:23:26;10.50;99.90
15341;DHT22;7770;52.158;5.372;2024-01-30T13:26:12;10.50;99.90
15341;DHT22;7770;52.158;5.372;2024-01-30T13:28:58;10.30;99.90
15341;DHT22;7770;52.158;5.372;2024-01-30T13:31:44;10.30;99.90
15341;DHT22;7770;52.158;5.372;2024-01-30T13:34:31;10.30;99.90
15341;DHT22;7770;52.158;5.372;2024-01-30T13:37:17;10.30;99.90
15341;DHT22;7770;52.158;5.372;2024-01-30T13:40:05;10.20;99.90
15341;DHT22;7770;52.158;5.372;2024-01-30T13:42:54;10.20;99.90
15341;DHT22;7770;52.158;5.372;2024-01-30T13:45:40;10.10;99.90
15341;DHT22;7770;52.158;5.372;2024-01-30T13:48:28;10.00;99.90
15341;DHT22;7770;52.158;5.372;2024-01-30T13:51:15;10.00;99.90
15341;DHT22;7770;52.158;5.372;2024-01-30T13:54:02;9.90;99.90
15341;DHT22;7770;52.158;5.372;2024-01-30T13:56:49;9.80;99.90
15341;DHT22;7770;52.158;5.372;2024-01-30T13:59:35;9.80;99.90
15341;DHT22;7770;52.158;5.372;2024-01-30T14:02:21;9.70;99.90
15341;DHT22;7770;52.158;5.372;2024-01-30T14:05:07;9.80;99.90
15341;DHT22;7770;52.158;5.372;2024-01-30T14:07:54;9.80;99.90
15341;DHT22;7770;52.158;5.372;2024-01-30T14:10:40;9.70;99.90
15341;DHT22;7770;52.158;5.372;2024-01-30T14:13:26;9.70;99.90
15341;DHT22;7770;52.158;5.372;2024-01-30T14:16:12;9.70;99.90
15341;DHT22;7770;52.158;5.372;2024-01-30T14:18:58;9.70;99.90
15341;DHT22;7770;52.158;5.372;2024-01-30T14:21:44;9.60;99.90
15341;DHT22;7770;52.158;5.372;2024-01-30T14:24:30;9.50;99.90
15341;DHT22;7770;52.158;5.372;2024-01-30T14:27:16;9.40;99.90
15341;DHT22;7770;52.158;5.372;2024-01-30T14:30:02;9.40;99.90
15341;DHT22;7770;52.158;5.372;2024-01-30T14:32:49;9.30;99.90
15341;DHT22;7770;52.158;5.372;2024-01-30T14:35:35;9.30;99.90
15341;DHT22;7770;52.158;5.372;2024-01-30T14:38:21;9.20;99.90
15341;DHT22;7770;52.158;5.372;2024-01-30T14:41:07;9.20;99.90
15341;DHT22;7770;52.158;5.372;2024-01-30T14:43:53;9.10;99.90
15341;DHT22;7770;52.158;5.372;2024-01-30T14:46:40;9.10;99.90
15341;DHT22;7770;52.158;5.372;2024-01-30T14:49:27;9.10;99.90
15341;DHT22;7770;52.158;5.372;2024-01-30T14:52:13;9.00;99.90
15341;DHT22;7770;52.158;5.372;2024-01-30T14:55:00;9.00;99.90
15341;DHT22;7770;52.158;5.372;2024-01-30T14:57:45;8.90;99.90
15341;DHT22;7770;52.158;5.372;2024-01-30T15:00:32;8.90;99.90
15341;DHT22;7770;52.158;5.372;2024-01-30T15:03:18;8.80;99.90
15341;DHT22;7770;52.158;5.372;2024-01-30T15:06:04;8.80;99.90
15341;DHT22;7770;52.158;5.372;2024-01-30T15:08:51;8.80;99.90
15341;DHT22;7770;52.158;5.372;2024-01-30T15:11:37;8.80;99.90
15341;DHT22;7770;52.158;5.372;2024-01-30T15:14:23;8.70;99.90
15341;DHT22;7770;52.158;5.372;2024-01-30T15:17:10;8.70;99.90
15341;DHT22;7770;52.158;5.372;2024-01-30T15:19:56;8.70;99.90
15341;DHT22;7770;52.158;5.372;2024-01-30T15:22:43;8.70;99.90
15341;DHT22;7770;52.158;5.372;2024-01-30T15:25:30;8.60;99.90
15341;DHT22;7770;52.158;5.372;2024-01-30T15:28:16;8.70;99.90
15341;DHT22;7770;52.158;5.372;2024-01-30T15:31:06;8.60;99.90
15341;DHT22;7770;52.158;5.372;2024-01-30T15:33:52;8.60;99.90
15341;DHT22;7770;52.158;5.372;2024-01-30T15:36:38;8.60;99.90
15341;DHT22;7770;52.158;5.372;2024-01-30T15:39:24;8.50;99.90
15341;DHT22;7770;52.158;5.372;2024-01-30T15:42:10;8.50;99.90
15341;DHT22;7770;52.158;5.372;2024-01-30T15:44:56;8.50;99.90
15341;DHT22;7770;52.158;5.372;2024-01-30T15:47:42;8.50;99.90
15341;DHT22;7770;52.158;5.372;2024-01-30T15:50:28;8.40;99.90
15341;DHT22;7770;52.158;5.372;2024-01-30T15:53:14;8.40;99.90
15341;DHT22;7770;52.158;5.372;2024-01-30T15:56:00;8.40;99.90
15341;DHT22;7770;52.158;5.372;2024-01-30T15:58:47;8.40;99.90
15341;DHT22;7770;52.158;5.372;2024-01-30T16:01:35;8.40;99.90
15341;DHT22;7770;52.158;5.372;2024-01-30T16:04:21;8.40;99.90
15341;DHT22;7770;52.158;5.372;2024-01-30T16:07:09;8.40;99.90
15341;DHT22;7770;52.158;5.372;2024-01-30T16:09:55;8.40;99.90
15341;DHT22;7770;52.158;5.372;2024-01-30T16:12:44;8.40;99.90
15341;DHT22;7770;52.158;5.372;2024-01-30T16:15:31;8.30;99.90
15341;DHT22;7770;52.158;5.372;2024-01-30T16:18:17;8.40;99.90
15341;DHT22;7770;52.158;5.372;2024-01-30T16:21:03;8.40;99.90
15341;DHT22;7770;52.158;5.372;2024-01-30T16:23:49;8.40;99.90
15341;DHT22;7770;52.158;5.372;2024-01-30T16:26:35;8.30;99.90
15341;DHT22;7770;52.158;5.372;2024-01-30T16:29:21;8.40;99.90
15341;DHT22;7770;52.158;5.372;2024-01-30T16:32:07;8.40;99.90
15341;DHT22;7770;52.158;5.372;2024-01-30T16:34:53;8.40;99.90
15341;DHT22;7770;52.158;5.372;2024-01-30T16:37:39;8.40;99.90
15341;DHT22;7770;52.158;5.372;2024-01-30T16:40:25;8.40;99.90
15341;DHT22;7770;52.158;5.372;2024-01-30T16:43:12;8.30;99.90
15341;DHT22;7770;52.158;5.372;2024-01-30T16:45:58;8.40;99.90
15341;DHT22;7770;52.158;5.372;2024-01-30T16:48:45;8.30;99.90
15341;DHT22;7770;52.158;5.372;2024-01-30T16:51:32;8.30;99.90
15341;DHT22;7770;52.158;5.372;2024-01-30T16:54:18;8.20;99.90
15341;DHT22;7770;52.158;5.372;2024-01-30T16:57:04;8.20;99.90
15341;DHT22;7770;52.158;5.372;2024-01-30T16:59:50;8.20;99.90
15341;DHT22;7770;52.158;5.372;2024-01-30T17:02:36;8.20;99.90
15341;DHT22;7770;52.158;5.372;2024-01-30T17:05:22;8.20;99.90
15341;DHT22;7770;52.158;5.372;2024-01-30T17:08:08;8.30;99.90
15341;DHT22;7770;52.158;5.372;2024-01-30T17:10:55;8.20;99.90
15341;DHT22;7770;52.158;5.372;2024-01-30T17:13:41;8.20;99.90
15341;DHT22;7770;52.158;5.372;2024-01-30T17:16:27;8.30;99.90
15341;DHT22;7770;52.158;5.372;2024-01-30T17:19:13;8.30;99.90
15341;DHT22;7770;52.158;5.372;2024-01-30T17:21:59;8.40;99.90
15341;DHT22;7770;52.158;5.372;2024-01-30T17:24:45;8.30;99.90
15341;DHT22;7770;52.158;5.372;2024-01-30T17:27:31;8.20;99.90
15341;DHT22;7770;52.158;5.372;2024-01-30T17:30:20;8.10;99.90
15341;DHT22;7770;52.158;5.372;2024-01-30T17:33:07;8.10;99.90
15341;DHT22;7770;52.158;5.372;2024-01-30T17:35:54;8.00;99.90
15341;DHT22;7770;52.158;5.372;2024-01-30T17:38:40;8.10;99.90
15341;DHT22;7770;52.158;5.372;2024-01-30T17:41:26;8.00;99.90
15341;DHT22;7770;52.158;5.372;2024-01-30T17:44:12;8.00;99.90
15341;DHT22;7770;52.158;5.372;2024-01-30T17:46:59;8.00;99.90
15341;DHT22;7770;52.158;5.372;2024-01-30T17:49:45;8.10;99.90
15341;DHT22;7770;52.158;5.372;2024-01-30T17:52:31;8.00;99.90
15341;DHT22;7770;52.158;5.372;2024-01-30T17:55:17;8.00;99.90
15341;DHT22;7770;52.158;5.372;2024-01-30T17:58:03;8.00;99.90
15341;DHT22;7770;52.158;5.372;2024-01-30T18:00:51;8.00;99.90